createdAt,value
2023-09-26T00:00:55.393Z,9.53
2023-09-26T00:01:57.474Z,10.16
2023-09-26T00:02:59.670Z,9.56
2023-09-26T00:04:01.686Z,10.12
2023-09-26T00:05:04.863Z,10.89
2023-09-26T00:06:18.602Z,9.81
2023-09-26T00:07:20.608Z,9.31
2023-09-26T00:08:22.997Z,9.78
2023-09-26T00:09:24.999Z,9.32
2023-09-26T00:10:27.995Z,10.57
2023-09-26T00:11:30.590Z,9.69
2023-09-26T00:12:34.342Z,9.93
2023-09-26T00:13:36.259Z,9.66
2023-09-26T00:14:38.728Z,9.83
2023-09-26T00:15:41.423Z,9.49
2023-09-26T00:16:43.716Z,10.33
2023-09-26T00:17:46.151Z,10.15
2023-09-26T00:18:48.146Z,10.05
2023-09-26T00:19:50.274Z,9.75
2023-09-26T00:20:52.393Z,9.01
2023-09-26T00:21:54.367Z,9.20
2023-09-26T00:22:57.318Z,8.97
2023-09-26T00:23:59.530Z,10.08
2023-09-26T00:25:01.626Z,9.58
2023-09-26T00:26:04.739Z,9.85
2023-09-26T00:27:06.662Z,9.47
2023-09-26T00:28:08.641Z,9.23
2023-09-26T00:29:10.603Z,9.59
2023-09-26T00:30:13.356Z,9.57
2023-09-26T00:31:15.491Z,9.73
2023-09-26T00:32:17.605Z,10.27
2023-09-26T00:33:19.681Z,9.99
2023-09-26T00:34:21.753Z,10.11
2023-09-26T00:35:24.579Z,10.40
2023-09-26T00:36:26.797Z,10.10
2023-09-26T00:37:29.000Z,10.11
2023-09-26T00:38:31.169Z,9.74
2023-09-26T00:39:35.671Z,10.46
2023-09-26T00:40:40.977Z,9.94
2023-09-26T00:41:44.040Z,9.64
2023-09-26T00:42:50.697Z,10.53
2023-09-26T00:43:54.330Z,10.48
2023-09-26T00:44:56.408Z,10.89
2023-09-26T00:46:02.432Z,10.33
2023-09-26T00:47:05.481Z,10.35
2023-09-26T00:48:07.832Z,11.28
2023-09-26T00:49:10.890Z,9.54
2023-09-26T00:50:14.285Z,10.64
2023-09-26T00:51:16.580Z,9.51
2023-09-26T00:52:19.391Z,10.92
2023-09-26T00:53:22.308Z,10.68
2023-09-26T00:54:24.573Z,10.47
2023-09-26T00:55:27.374Z,10.68
2023-09-26T00:56:30.742Z,10.48
2023-09-26T00:57:33.416Z,10.22
2023-09-26T00:58:36.852Z,10.15
2023-09-26T00:59:39.239Z,9.65
2023-09-26T01:00:41.806Z,10.49
2023-09-26T01:01:44.408Z,9.95
2023-09-26T01:02:46.589Z,9.49
2023-09-26T01:03:48.828Z,11.53
2023-09-26T01:04:52.031Z,10.91
2023-09-26T01:05:55.112Z,10.14
2023-09-26T01:06:58.002Z,10.42
2023-09-26T01:07:59.987Z,10.95
2023-09-26T01:09:02.006Z,11.44
2023-09-26T01:10:05.904Z,10.31
2023-09-26T01:11:08.333Z,10.47
2023-09-26T01:12:10.689Z,10.87
2023-09-26T01:13:13.078Z,10.85
2023-09-26T01:14:15.312Z,10.74
2023-09-26T01:15:37.796Z,10.53
2023-09-26T01:16:40.528Z,11.32
2023-09-26T01:17:42.571Z,10.73
2023-09-26T01:18:46.577Z,11.07
2023-09-26T01:19:49.153Z,11.74
2023-09-26T01:20:52.663Z,11.05
2023-09-26T01:21:54.795Z,11.91
2023-09-26T01:22:57.598Z,11.05
2023-09-26T01:24:00.573Z,11.47
2023-09-26T01:25:02.901Z,10.86
2023-09-26T01:26:05.645Z,10.55
2023-09-26T01:27:07.568Z,10.51
2023-09-26T01:28:11.048Z,11.07
2023-09-26T01:29:13.482Z,11.08
2023-09-26T01:30:20.004Z,12.18
2023-09-26T01:31:22.223Z,12.21
2023-09-26T01:32:24.296Z,12.08
2023-09-26T01:33:26.513Z,12.44
2023-09-26T01:34:28.464Z,12.13
2023-09-26T01:35:32.193Z,11.56
2023-09-26T01:36:34.648Z,11.81
2023-09-26T01:37:36.561Z,12.52
2023-09-26T01:38:38.599Z,11.82
2023-09-26T01:39:40.553Z,11.87
2023-09-26T01:40:42.769Z,11.67
2023-09-26T01:41:44.680Z,11.47
2023-09-26T01:42:46.729Z,11.67
2023-09-26T01:43:48.998Z,11.57
2023-09-26T01:44:51.169Z,12.45
2023-09-26T01:45:55.202Z,12.75
2023-09-26T01:46:58.652Z,13.14
2023-09-26T01:48:02.316Z,12.09
2023-09-26T01:49:04.690Z,11.19
2023-09-26T01:50:08.986Z,11.53
2023-09-26T01:51:12.012Z,11.17
2023-09-26T01:52:13.972Z,12.13
2023-09-26T01:53:16.333Z,13.01
2023-09-26T01:54:18.269Z,12.57
2023-09-26T01:55:22.732Z,11.73
2023-09-26T01:56:26.040Z,11.87
2023-09-26T01:57:27.933Z,11.53
2023-09-26T01:58:29.877Z,11.69
2023-09-26T01:59:34.042Z,11.59
2023-09-26T02:00:36.193Z,11.81
2023-09-26T02:01:38.222Z,12.00
2023-09-26T02:02:41.507Z,11.72
2023-09-26T02:03:43.807Z,12.02
2023-09-26T02:04:46.028Z,11.97
2023-09-26T02:05:48.335Z,11.89
2023-09-26T02:06:50.570Z,12.01
2023-09-26T02:07:52.531Z,11.85
2023-09-26T02:08:54.672Z,11.88
2023-09-26T02:09:57.704Z,11.38
2023-09-26T02:11:00.321Z,12.43
2023-09-26T02:12:02.375Z,10.85
2023-09-26T02:13:04.721Z,13.57
2023-09-26T02:14:06.887Z,12.23
2023-09-26T02:15:10.561Z,11.03
2023-09-26T02:16:13.676Z,12.71
2023-09-26T02:17:15.787Z,11.00
2023-09-26T02:18:17.783Z,12.56
2023-09-26T02:19:20.052Z,11.23
2023-09-26T02:20:22.567Z,12.55
2023-09-26T02:21:24.516Z,12.52
2023-09-26T02:22:26.483Z,11.83
2023-09-26T02:23:28.592Z,11.89
2023-09-26T02:24:30.557Z,12.17
2023-09-26T02:25:32.616Z,11.35
2023-09-26T02:26:35.060Z,12.29
2023-09-26T02:27:38.997Z,13.01
2023-09-26T02:28:41.232Z,11.58
2023-09-26T02:29:43.138Z,12.38
2023-09-26T02:30:46.255Z,11.71
2023-09-26T02:31:48.413Z,12.17
2023-09-26T02:32:51.071Z,12.23
2023-09-26T02:33:54.193Z,12.14
2023-09-26T02:34:56.168Z,12.14
2023-09-26T02:35:58.089Z,12.09
2023-09-26T02:37:00.260Z,11.56
2023-09-26T02:38:02.608Z,12.35
2023-09-26T02:39:04.894Z,13.01
2023-09-26T02:40:13.677Z,11.52
2023-09-26T02:41:15.743Z,12.09
2023-09-26T02:42:17.772Z,11.67
2023-09-26T02:43:19.783Z,12.57
2023-09-26T02:44:21.792Z,11.44
2023-09-26T02:45:24.478Z,12.55
2023-09-26T02:46:26.585Z,11.13
2023-09-26T02:47:29.343Z,12.07
2023-09-26T02:48:31.375Z,12.18
2023-09-26T02:49:33.385Z,11.84
2023-09-26T02:50:35.501Z,12.05
2023-09-26T02:51:37.543Z,12.69
2023-09-26T02:52:43.271Z,12.31
2023-09-26T02:53:45.635Z,12.61
2023-09-26T02:54:47.891Z,11.91
2023-09-26T02:55:49.936Z,11.47
2023-09-26T02:56:52.653Z,11.57
2023-09-26T02:57:54.843Z,12.43
2023-09-26T02:58:56.971Z,12.38
2023-09-26T02:59:59.739Z,11.25
2023-09-26T03:01:03.048Z,12.35
2023-09-26T03:02:05.266Z,12.68
2023-09-26T03:03:08.635Z,11.23
2023-09-26T03:04:10.908Z,11.85
2023-09-26T03:05:14.005Z,11.48
2023-09-26T03:06:16.445Z,11.09
2023-09-26T03:07:19.395Z,11.20
2023-09-26T03:08:21.782Z,12.03
2023-09-26T03:09:24.349Z,12.65
2023-09-26T03:10:26.671Z,12.24
2023-09-26T03:11:29.925Z,11.65
2023-09-26T03:12:31.976Z,11.09
2023-09-26T03:13:34.037Z,11.37
2023-09-26T03:14:36.229Z,11.60
2023-09-26T03:15:38.693Z,12.27
2023-09-26T03:16:41.314Z,10.94
2023-09-26T03:17:43.693Z,11.19
2023-09-26T03:18:45.707Z,11.43
2023-09-26T03:19:47.824Z,12.35
2023-09-26T03:20:49.894Z,11.13
2023-09-26T03:21:52.561Z,11.47
2023-09-26T03:22:54.643Z,10.78
2023-09-26T03:23:56.875Z,11.55
2023-09-26T03:24:59.045Z,11.01
2023-09-26T03:26:01.265Z,10.79
2023-09-26T03:27:03.331Z,11.86
2023-09-26T03:28:05.760Z,11.89
2023-09-26T03:29:07.755Z,11.57
2023-09-26T03:30:10.848Z,11.53
2023-09-26T03:31:12.940Z,11.97
2023-09-26T03:32:15.414Z,12.48
2023-09-26T03:33:18.663Z,12.56
2023-09-26T03:34:20.622Z,12.03
2023-09-26T03:35:22.764Z,12.13
2023-09-26T03:36:25.373Z,12.41
2023-09-26T03:37:27.435Z,12.49
2023-09-26T03:38:31.279Z,14.97
2023-09-26T03:39:33.221Z,14.87
2023-09-26T03:40:36.158Z,15.56
2023-09-26T03:41:38.277Z,15.13
2023-09-26T03:42:41.409Z,15.02
2023-09-26T03:43:44.627Z,14.83
2023-09-26T03:44:47.094Z,15.26
2023-09-26T03:45:49.101Z,14.31
2023-09-26T03:46:51.490Z,15.67
2023-09-26T03:47:53.668Z,15.60
2023-09-26T03:48:57.588Z,13.77
2023-09-26T03:50:01.366Z,14.45
2023-09-26T03:51:12.796Z,13.76
2023-09-26T03:52:15.017Z,13.94
2023-09-26T03:53:17.219Z,12.70
2023-09-26T03:54:20.053Z,12.84
2023-09-26T03:55:22.153Z,13.37
2023-09-26T03:56:24.384Z,13.46
2023-09-26T03:57:26.989Z,12.26
2023-09-26T03:58:29.561Z,11.77
2023-09-26T03:59:31.938Z,12.07
2023-09-26T04:00:34.454Z,11.59
2023-09-26T04:01:36.551Z,11.54
2023-09-26T04:02:38.877Z,11.49
2023-09-26T04:03:44.399Z,11.21
2023-09-26T04:04:46.565Z,11.28
2023-09-26T04:05:52.305Z,12.18
2023-09-26T04:06:54.678Z,11.69
2023-09-26T04:07:56.790Z,11.67
2023-09-26T04:08:59.406Z,12.87
2023-09-26T04:10:01.328Z,12.34
2023-09-26T04:11:03.543Z,13.09
2023-09-26T04:12:06.417Z,12.31
2023-09-26T04:13:08.865Z,12.09
2023-09-26T04:14:10.893Z,11.56
2023-09-26T04:15:12.840Z,11.17
2023-09-26T04:16:15.283Z,12.23
2023-09-26T04:17:18.259Z,12.09
2023-09-26T04:18:21.103Z,11.61
2023-09-26T04:19:23.363Z,11.45
2023-09-26T04:20:36.970Z,11.56
2023-09-26T04:21:29.774Z,11.62
2023-09-26T04:22:31.823Z,12.33
2023-09-26T04:23:34.482Z,11.42
2023-09-26T04:24:36.413Z,11.58
2023-09-26T04:25:38.456Z,11.27
2023-09-26T04:26:40.842Z,11.15
2023-09-26T04:27:42.767Z,11.27
2023-09-26T04:28:46.168Z,12.13
2023-09-26T04:29:48.292Z,11.66
2023-09-26T04:30:51.824Z,11.33
2023-09-26T04:31:53.927Z,11.68
2023-09-26T04:32:56.600Z,11.44
2023-09-26T04:33:59.044Z,11.02
2023-09-26T04:35:01.372Z,10.55
2023-09-26T04:36:03.989Z,11.62
2023-09-26T04:37:06.150Z,11.13
2023-09-26T04:38:08.443Z,10.60
2023-09-26T04:39:10.521Z,11.30
2023-09-26T04:40:13.457Z,10.67
2023-09-26T04:41:15.766Z,10.65
2023-09-26T04:42:17.659Z,10.79
2023-09-26T04:43:19.640Z,12.02
2023-09-26T04:44:21.627Z,10.33
2023-09-26T04:45:24.669Z,11.83
2023-09-26T04:46:27.284Z,11.37
2023-09-26T04:47:29.423Z,10.64
2023-09-26T04:48:31.818Z,10.47
2023-09-26T04:49:34.325Z,10.72
2023-09-26T04:50:36.800Z,11.68
2023-09-26T04:51:39.291Z,11.41
2023-09-26T04:52:41.283Z,10.17
2023-09-26T04:53:43.722Z,10.38
2023-09-26T04:54:46.013Z,9.94
2023-09-26T04:55:47.941Z,10.32
2023-09-26T04:56:51.640Z,10.63
2023-09-26T04:57:53.678Z,10.72
2023-09-26T04:58:55.866Z,10.83
2023-09-26T04:59:57.789Z,10.21
2023-09-26T05:01:04.845Z,10.58
2023-09-26T05:02:07.069Z,10.42
2023-09-26T05:03:09.198Z,11.28
2023-09-26T05:04:11.573Z,10.11
2023-09-26T05:05:13.935Z,10.69
2023-09-26T05:06:16.204Z,10.59
2023-09-26T05:07:18.176Z,11.12
2023-09-26T05:08:20.265Z,11.20
2023-09-26T05:09:23.420Z,10.32
2023-09-26T05:10:26.536Z,10.71
2023-09-26T05:11:28.633Z,11.04
2023-09-26T05:12:30.882Z,10.47
2023-09-26T05:13:33.080Z,11.13
2023-09-26T05:14:35.191Z,9.98
2023-09-26T05:15:37.745Z,10.77
2023-09-26T05:16:40.137Z,10.77
2023-09-26T05:17:52.380Z,10.71
2023-09-26T05:18:54.749Z,10.79
2023-09-26T05:19:56.818Z,11.38
2023-09-26T05:21:09.298Z,10.69
2023-09-26T05:22:11.917Z,11.18
2023-09-26T05:23:14.762Z,10.25
2023-09-26T05:24:17.662Z,10.79
2023-09-26T05:25:19.983Z,10.75
2023-09-26T05:26:22.372Z,9.75
2023-09-26T05:27:24.292Z,10.65
2023-09-26T05:28:26.272Z,10.54
2023-09-26T05:29:28.283Z,10.30
2023-09-26T05:30:31.160Z,10.01
2023-09-26T05:31:33.419Z,10.99
2023-09-26T05:32:36.380Z,10.65
2023-09-26T05:33:38.418Z,11.14
2023-09-26T05:34:40.431Z,11.53
2023-09-26T05:35:42.373Z,11.36
2023-09-26T05:36:44.632Z,10.26
2023-09-26T05:37:46.647Z,11.18
2023-09-26T05:38:49.455Z,10.89
2023-09-26T05:39:53.998Z,10.20
2023-09-26T05:40:56.256Z,11.06
2023-09-26T05:41:58.170Z,10.35
2023-09-26T05:43:00.301Z,10.69
2023-09-26T05:44:02.493Z,10.68
2023-09-26T05:45:09.357Z,10.52
2023-09-26T05:46:11.536Z,10.76
2023-09-26T05:47:13.571Z,10.52
2023-09-26T05:48:16.700Z,10.53
2023-09-26T05:49:19.985Z,11.72
2023-09-26T05:50:22.226Z,10.51
2023-09-26T05:51:24.400Z,10.34
2023-09-26T05:52:26.454Z,11.17
2023-09-26T05:53:30.596Z,9.98
2023-09-26T05:54:33.234Z,10.88
2023-09-26T05:55:35.451Z,10.69
2023-09-26T05:56:37.791Z,11.09
2023-09-26T05:57:40.519Z,11.79
2023-09-26T05:58:42.610Z,10.82
2023-09-26T05:59:44.780Z,11.18
2023-09-26T06:00:47.401Z,10.61
2023-09-26T06:01:49.608Z,10.71
2023-09-26T06:02:52.835Z,11.12
2023-09-26T06:03:55.399Z,11.35
2023-09-26T06:04:58.031Z,11.16
2023-09-26T06:06:03.330Z,11.41
2023-09-26T06:07:05.410Z,10.87
2023-09-26T06:08:07.476Z,10.83
2023-09-26T06:09:09.487Z,10.97
2023-09-26T06:10:12.105Z,10.33
2023-09-26T06:11:14.245Z,11.34
2023-09-26T06:12:16.163Z,11.47
2023-09-26T06:13:18.340Z,11.38
2023-09-26T06:14:20.350Z,11.32
2023-09-26T06:15:23.524Z,11.70
2023-09-26T06:16:26.587Z,11.73
2023-09-26T06:17:28.822Z,11.88
2023-09-26T06:18:32.686Z,11.33
2023-09-26T06:19:34.880Z,12.11
2023-09-26T06:20:37.046Z,11.45
2023-09-26T06:21:38.942Z,11.51
2023-09-26T06:22:41.250Z,11.13
2023-09-26T06:23:45.396Z,11.23
2023-09-26T06:24:47.768Z,11.82
2023-09-26T06:26:00.246Z,11.84
2023-09-26T06:27:02.490Z,11.14
2023-09-26T06:28:05.308Z,11.51
2023-09-26T06:29:07.781Z,11.44
2023-09-26T06:30:11.481Z,12.83
2023-09-26T06:31:13.606Z,12.04
2023-09-26T06:32:16.133Z,11.43
2023-09-26T06:33:18.551Z,11.67
2023-09-26T06:34:20.655Z,10.81
2023-09-26T06:35:23.552Z,11.56
2023-09-26T06:36:27.940Z,10.99
2023-09-26T06:37:29.907Z,11.10
2023-09-26T06:38:31.939Z,11.41
2023-09-26T06:39:34.358Z,11.00
2023-09-26T06:40:36.504Z,11.50
2023-09-26T06:41:38.529Z,11.80
2023-09-26T06:42:40.977Z,11.80
2023-09-26T06:43:42.975Z,11.02
2023-09-26T06:44:45.025Z,12.35
2023-09-26T06:45:46.971Z,12.31
2023-09-26T06:46:49.233Z,11.93
2023-09-26T06:47:51.302Z,12.37
2023-09-26T06:48:53.721Z,12.19
2023-09-26T06:49:56.198Z,11.96
2023-09-26T06:51:00.179Z,11.98
2023-09-26T06:52:04.878Z,11.81
2023-09-26T06:53:06.929Z,11.24
2023-09-26T06:54:10.273Z,11.88
2023-09-26T06:55:12.533Z,12.60
2023-09-26T06:56:15.356Z,12.69
2023-09-26T06:57:18.291Z,12.74
2023-09-26T06:58:20.308Z,12.58
2023-09-26T06:59:22.486Z,12.76
2023-09-26T07:00:25.290Z,12.60
2023-09-26T07:01:28.533Z,12.88
2023-09-26T07:02:31.060Z,12.79
2023-09-26T07:03:33.489Z,12.86
2023-09-26T07:04:35.495Z,13.42
2023-09-26T07:05:37.491Z,11.99
2023-09-26T07:06:42.108Z,12.96
2023-09-26T07:07:44.214Z,13.32
2023-09-26T07:08:46.440Z,11.97
2023-09-26T07:09:48.368Z,11.41
2023-09-26T07:10:51.253Z,11.61
2023-09-26T07:11:53.249Z,12.24
2023-09-26T07:12:55.220Z,12.19
2023-09-26T07:14:00.177Z,11.94
2023-09-26T07:15:03.913Z,12.56
2023-09-26T07:16:08.097Z,13.07
2023-09-26T07:17:10.332Z,12.66
2023-09-26T07:18:12.700Z,12.75
2023-09-26T07:19:14.695Z,11.89
2023-09-26T07:20:17.325Z,12.41
2023-09-26T07:21:19.643Z,12.27
2023-09-26T07:22:21.941Z,12.15
2023-09-26T07:23:24.095Z,12.23
2023-09-26T07:24:38.538Z,11.39
2023-09-26T07:25:31.188Z,12.07
2023-09-26T07:26:33.763Z,12.33
2023-09-26T07:27:35.899Z,12.47
2023-09-26T07:28:38.367Z,12.91
2023-09-26T07:29:40.436Z,12.57
2023-09-26T07:30:45.043Z,12.85
2023-09-26T07:31:47.246Z,12.49
2023-09-26T07:32:49.576Z,13.06
2023-09-26T07:33:52.169Z,15.07
2023-09-26T07:34:54.494Z,14.54
2023-09-26T07:35:56.629Z,13.55
2023-09-26T07:36:58.909Z,14.21
2023-09-26T07:38:01.035Z,13.89
2023-09-26T07:39:03.434Z,13.13
2023-09-26T07:40:07.538Z,12.79
2023-09-26T07:41:09.695Z,12.90
2023-09-26T07:42:12.094Z,13.47
2023-09-26T07:43:14.160Z,12.95
2023-09-26T07:44:16.561Z,13.29
2023-09-26T07:45:18.955Z,13.25
2023-09-26T07:46:21.775Z,13.14
2023-09-26T07:47:24.764Z,12.99
2023-09-26T07:48:29.887Z,11.51
2023-09-26T07:49:31.869Z,12.64
2023-09-26T07:50:34.207Z,12.51
2023-09-26T07:51:36.337Z,13.07
2023-09-26T07:52:38.284Z,12.27
2023-09-26T07:53:40.376Z,12.17
2023-09-26T07:54:42.459Z,12.82
2023-09-26T07:55:45.313Z,12.46
2023-09-26T07:56:47.641Z,12.30
2023-09-26T07:57:49.779Z,11.79
2023-09-26T07:58:51.761Z,12.45
2023-09-26T07:59:55.497Z,12.49
2023-09-26T08:00:58.311Z,12.14
2023-09-26T08:02:00.802Z,12.44
2023-09-26T08:03:03.275Z,11.51
2023-09-26T08:04:06.709Z,11.25
2023-09-26T08:05:09.782Z,11.95
2023-09-26T08:06:12.225Z,10.72
2023-09-26T08:07:14.301Z,11.97
2023-09-26T08:08:16.851Z,11.21
2023-09-26T08:09:19.510Z,11.10
2023-09-26T08:10:21.688Z,11.71
2023-09-26T08:11:24.029Z,12.36
2023-09-26T08:12:26.158Z,11.23
2023-09-26T08:13:28.199Z,10.84
2023-09-26T08:14:34.020Z,10.74
2023-09-26T08:15:36.271Z,9.72
2023-09-26T08:16:39.540Z,11.04
2023-09-26T08:17:41.793Z,11.57
2023-09-26T08:18:44.021Z,10.75
2023-09-26T08:19:46.135Z,10.90
2023-09-26T08:20:49.498Z,10.73
2023-09-26T08:21:51.561Z,10.72
2023-09-26T08:22:54.004Z,10.81
2023-09-26T08:23:57.085Z,10.33
2023-09-26T08:24:59.023Z,9.83
2023-09-26T08:26:03.771Z,10.32
2023-09-26T08:27:06.511Z,10.83
2023-09-26T08:28:09.205Z,9.91
2023-09-26T08:29:11.197Z,10.14
2023-09-26T08:30:13.701Z,9.89
2023-09-26T08:31:16.418Z,10.51
2023-09-26T08:32:18.734Z,10.67
2023-09-26T08:33:20.822Z,11.01
2023-09-26T08:34:23.797Z,10.82
2023-09-26T08:35:26.002Z,10.44
2023-09-26T08:36:28.371Z,9.43
2023-09-26T08:37:30.514Z,10.61
2023-09-26T08:38:32.437Z,10.30
2023-09-26T08:39:34.534Z,9.93
2023-09-26T08:40:38.754Z,9.66
2023-09-26T08:41:44.175Z,10.12
2023-09-26T08:42:46.293Z,9.53
2023-09-26T08:43:48.350Z,9.25
2023-09-26T08:44:52.078Z,10.09
2023-09-26T08:45:56.797Z,9.11
2023-09-26T08:47:00.568Z,9.22
2023-09-26T08:48:02.868Z,9.53
2023-09-26T08:49:05.978Z,9.41
2023-09-26T08:50:08.428Z,8.69
2023-09-26T08:51:10.801Z,8.79
2023-09-26T08:52:13.279Z,10.01
2023-09-26T08:53:16.349Z,7.96
2023-09-26T08:54:19.038Z,9.29
2023-09-26T08:55:21.236Z,9.39
2023-09-26T08:56:27.025Z,8.98
2023-09-26T08:57:31.071Z,9.03
2023-09-26T08:58:35.346Z,8.64
2023-09-26T08:59:37.990Z,8.13
2023-09-26T09:00:40.477Z,9.13
2023-09-26T09:01:42.911Z,8.83
2023-09-26T09:02:45.216Z,9.19
2023-09-26T09:03:47.241Z,8.19
2023-09-26T09:04:49.470Z,8.69
2023-09-26T09:05:51.736Z,8.77
2023-09-26T09:07:03.691Z,9.17
2023-09-26T09:08:07.677Z,9.46
2023-09-26T09:09:09.958Z,8.65
2023-09-26T09:10:14.023Z,9.25
2023-09-26T09:11:19.899Z,8.45
2023-09-26T09:12:22.234Z,8.73
2023-09-26T09:13:30.086Z,8.02
2023-09-26T09:14:35.466Z,8.42
2023-09-26T09:15:37.700Z,8.61
2023-09-26T09:16:43.881Z,8.27
2023-09-26T09:17:50.700Z,8.57
2023-09-26T09:18:53.701Z,8.93
2023-09-26T09:19:55.900Z,8.73
2023-09-26T09:20:59.165Z,8.27
2023-09-26T09:23:28.150Z,8.16
2023-09-26T09:24:33.822Z,8.23
2023-09-26T09:25:38.119Z,8.15
2023-09-26T09:26:41.368Z,8.19
2023-09-26T09:27:43.410Z,7.89
2023-09-26T09:28:46.410Z,8.18
2023-09-26T09:29:52.083Z,7.37
2023-09-26T09:30:55.156Z,8.01
2023-09-26T09:31:57.293Z,7.55
2023-09-26T09:33:02.232Z,7.03
2023-09-26T09:34:05.537Z,7.69
2023-09-26T09:35:12.703Z,8.12
2023-09-26T09:36:15.174Z,8.54
2023-09-26T09:37:20.523Z,7.68
2023-09-26T09:38:22.805Z,7.21
2023-09-26T09:39:25.431Z,7.57
2023-09-26T09:40:29.233Z,7.62
2023-09-26T09:41:32.501Z,7.79
2023-09-26T09:42:36.901Z,6.92
2023-09-26T09:43:39.796Z,7.19
2023-09-26T09:44:41.913Z,6.81
2023-09-26T09:45:47.339Z,7.35
2023-09-26T09:46:54.374Z,7.29
2023-09-26T09:47:57.304Z,8.11
2023-09-26T09:49:02.361Z,7.63
2023-09-26T09:50:06.678Z,6.71
2023-09-26T09:51:14.107Z,6.93
2023-09-26T09:52:19.860Z,7.04
2023-09-26T09:53:22.518Z,6.92
2023-09-26T09:54:27.119Z,7.49
2023-09-26T09:55:31.841Z,7.84
2023-09-26T09:56:35.380Z,7.57
2023-09-26T09:57:40.397Z,6.73
2023-09-26T09:58:45.744Z,6.73
2023-09-26T09:59:50.269Z,8.14
2023-09-26T10:00:53.317Z,7.44
2023-09-26T10:01:59.174Z,7.31
2023-09-26T10:03:03.907Z,6.36
2023-09-26T10:04:07.243Z,6.99
2023-09-26T10:05:10.337Z,6.82
2023-09-26T10:06:12.583Z,7.09
2023-09-26T10:07:15.804Z,6.66
2023-09-26T10:08:20.934Z,6.32
2023-09-26T10:09:23.534Z,6.85
2023-09-26T10:10:27.130Z,7.51
2023-09-26T10:11:30.654Z,6.77
2023-09-26T10:12:35.284Z,6.54
2023-09-26T10:13:38.044Z,7.19
2023-09-26T10:14:40.177Z,6.73
2023-09-26T10:16:13.101Z,7.14
2023-09-26T10:17:18.152Z,6.71
2023-09-26T10:18:20.879Z,7.27
2023-09-26T10:19:37.659Z,6.88
2023-09-26T10:20:49.578Z,7.81
2023-09-26T10:21:33.255Z,7.49
2023-09-26T10:22:35.605Z,7.24
2023-09-26T10:23:42.627Z,7.90
2023-09-26T10:24:52.489Z,6.95
2023-09-26T10:25:54.673Z,6.83
2023-09-26T10:27:06.251Z,6.47
2023-09-26T10:28:07.078Z,6.56
2023-09-26T10:29:15.044Z,6.41
2023-09-26T10:30:20.613Z,7.48
2023-09-26T10:31:22.982Z,6.16
2023-09-26T10:32:31.660Z,6.29
2023-09-26T10:33:39.713Z,6.54
2023-09-26T10:35:44.220Z,6.99
2023-09-26T10:36:47.218Z,7.67
2023-09-26T10:37:52.287Z,7.05
2023-09-26T10:39:05.411Z,6.98
2023-09-26T10:40:13.568Z,7.29
2023-09-26T10:41:16.338Z,6.89
2023-09-26T10:44:33.086Z,6.81
2023-09-26T10:45:35.306Z,6.82
2023-09-26T10:46:37.836Z,6.95
2023-09-26T10:47:40.828Z,7.47
2023-09-26T10:48:43.118Z,7.28
2023-09-26T10:49:45.994Z,7.31
2023-09-26T10:50:50.862Z,7.12
2023-09-26T10:51:53.202Z,7.81
2023-09-26T10:52:56.219Z,7.39
2023-09-26T10:53:59.728Z,8.66
2023-09-26T10:55:05.492Z,8.04
2023-09-26T10:56:08.999Z,7.81
2023-09-26T10:57:18.966Z,7.42
2023-09-26T10:58:21.210Z,7.45
2023-09-26T10:59:23.332Z,8.47
2023-09-26T11:00:25.413Z,7.55
2023-09-26T11:01:37.953Z,7.41
2023-09-26T11:03:42.897Z,7.19
2023-09-26T11:04:45.423Z,8.39
2023-09-26T11:06:54.258Z,7.39
2023-09-26T11:07:56.759Z,7.12
2023-09-26T11:08:59.173Z,7.61
2023-09-26T11:10:03.433Z,6.81
2023-09-26T11:11:05.350Z,7.55
2023-09-26T11:12:07.418Z,6.75
2023-09-26T11:13:09.830Z,7.87
2023-09-26T11:14:12.229Z,7.51
2023-09-26T11:16:18.742Z,6.84
2023-09-26T11:17:20.991Z,6.99
2023-09-26T11:18:24.773Z,8.34
2023-09-26T11:19:28.070Z,7.78
2023-09-26T11:20:31.114Z,7.89
2023-09-26T11:21:33.255Z,8.26
2023-09-26T11:22:49.297Z,7.74
2023-09-26T11:23:51.496Z,7.07
2023-09-26T11:25:09.637Z,7.08
2023-09-26T11:26:12.849Z,7.51
2023-09-26T11:27:14.997Z,6.97
2023-09-26T11:28:17.783Z,7.28
2023-09-26T11:29:21.064Z,6.67
2023-09-26T11:30:23.864Z,7.54
2023-09-26T11:31:26.414Z,6.88
2023-09-26T11:32:28.764Z,6.98
2023-09-26T11:33:32.093Z,6.83
2023-09-26T11:34:37.148Z,6.85
2023-09-26T11:35:39.763Z,6.92
2023-09-26T11:36:42.485Z,7.28
2023-09-26T11:37:49.936Z,6.35
2023-09-26T11:38:53.501Z,7.25
2023-09-26T11:39:55.729Z,6.34
2023-09-26T11:40:59.237Z,6.75
2023-09-26T11:42:09.037Z,6.75
2023-09-26T11:43:11.850Z,6.53
2023-09-26T11:44:15.721Z,6.29
2023-09-26T11:46:49.972Z,7.09
2023-09-26T11:47:56.874Z,6.28
2023-09-26T11:48:59.225Z,7.44
2023-09-26T11:50:01.487Z,6.81
2023-09-26T11:51:03.481Z,7.11
2023-09-26T11:52:06.284Z,7.29
2023-09-26T11:53:09.978Z,6.92
2023-09-26T11:54:12.211Z,6.84
2023-09-26T11:55:18.321Z,7.54
2023-09-26T11:56:26.342Z,6.98
2023-09-26T11:57:34.122Z,7.45
2023-09-26T11:58:36.469Z,6.90
2023-09-26T11:59:41.677Z,6.55
2023-09-26T12:00:44.203Z,6.38
2023-09-26T12:01:46.570Z,7.08
2023-09-26T12:02:50.451Z,7.04
2023-09-26T12:03:52.899Z,7.05
2023-09-26T12:04:54.995Z,7.33
2023-09-26T12:05:58.194Z,6.35
2023-09-26T12:07:00.565Z,6.33
2023-09-26T12:08:05.095Z,6.80
2023-09-26T12:09:09.668Z,6.13
2023-09-26T12:10:11.883Z,6.94
2023-09-26T12:11:14.578Z,7.57
2023-09-26T12:12:16.770Z,6.85
2023-09-26T12:13:18.684Z,6.39
2023-09-26T12:14:20.981Z,6.53
2023-09-26T12:15:25.224Z,7.23
2023-09-26T12:16:27.707Z,7.06
2023-09-26T12:17:30.719Z,6.83
2023-09-26T12:18:32.841Z,7.19
2023-09-26T12:19:34.857Z,6.57
2023-09-26T12:20:39.713Z,7.34
2023-09-26T12:21:42.055Z,6.57
2023-09-26T12:22:44.510Z,7.85
2023-09-26T12:23:46.834Z,6.20
2023-09-26T12:24:49.758Z,6.78
2023-09-26T12:25:52.274Z,6.91
2023-09-26T12:26:54.409Z,6.83
2023-09-26T12:27:56.328Z,6.33
2023-09-26T12:28:58.340Z,6.40
2023-09-26T12:30:02.948Z,7.62
2023-09-26T12:31:05.738Z,7.38
2023-09-26T12:32:07.736Z,6.59
2023-09-26T12:33:12.905Z,6.19
2023-09-26T12:34:14.915Z,6.84
2023-09-26T12:35:17.594Z,6.89
2023-09-26T12:36:19.751Z,6.93
2023-09-26T12:37:21.753Z,6.51
2023-09-26T12:38:23.828Z,6.14
2023-09-26T12:39:26.173Z,6.18
2023-09-26T12:40:28.589Z,6.53
2023-09-26T12:41:31.119Z,6.51
2023-09-26T12:42:33.253Z,5.83
2023-09-26T12:43:35.483Z,6.33
2023-09-26T12:44:38.245Z,6.34
2023-09-26T12:45:40.250Z,5.76
2023-09-26T12:46:42.434Z,6.33
2023-09-26T12:47:46.343Z,6.49
2023-09-26T12:48:48.436Z,6.65
2023-09-26T12:49:50.926Z,6.80
2023-09-26T12:50:53.382Z,6.28
2023-09-26T12:51:55.736Z,6.13
2023-09-26T12:52:58.024Z,6.78
2023-09-26T12:54:00.073Z,6.54
2023-09-26T12:55:04.227Z,6.36
2023-09-26T12:56:06.450Z,6.51
2023-09-26T12:57:08.492Z,6.71
2023-09-26T12:58:10.604Z,6.41
2023-09-26T12:59:13.035Z,6.77
2023-09-26T13:00:15.856Z,6.97
2023-09-26T13:01:18.578Z,7.15
2023-09-26T13:02:21.519Z,6.71
2023-09-26T13:03:24.023Z,7.09
2023-09-26T13:04:26.566Z,5.87
2023-09-26T13:05:28.850Z,7.18
2023-09-26T13:06:31.139Z,6.32
2023-09-26T13:07:33.657Z,6.45
2023-09-26T13:08:35.782Z,6.17
2023-09-26T13:09:37.806Z,7.39
2023-09-26T13:10:39.937Z,6.21
2023-09-26T13:11:43.156Z,6.62
2023-09-26T13:12:45.222Z,6.51
2023-09-26T13:13:48.411Z,7.21
2023-09-26T13:14:50.844Z,6.85
2023-09-26T13:15:52.901Z,7.01
2023-09-26T13:16:55.288Z,6.38
2023-09-26T13:17:58.363Z,6.91
2023-09-26T13:19:00.616Z,7.16
2023-09-26T13:20:04.701Z,6.33
2023-09-26T13:21:06.804Z,6.72
2023-09-26T13:22:10.175Z,7.42
2023-09-26T13:23:12.341Z,6.85
2023-09-26T13:24:14.619Z,6.79
2023-09-26T13:25:16.693Z,6.31
2023-09-26T13:26:19.357Z,6.65
2023-09-26T13:27:21.368Z,7.37
2023-09-26T13:28:23.562Z,7.30
2023-09-26T13:29:25.746Z,6.83
2023-09-26T13:30:27.872Z,6.99
2023-09-26T13:31:30.769Z,6.53
2023-09-26T13:32:33.285Z,7.18
2023-09-26T13:33:35.279Z,7.39
2023-09-26T13:34:37.338Z,6.17
2023-09-26T13:35:39.759Z,6.77
2023-09-26T13:36:43.201Z,7.02
2023-09-26T13:37:45.518Z,7.09
2023-09-26T13:38:47.812Z,7.31
2023-09-26T13:39:50.010Z,6.37
2023-09-26T13:40:52.158Z,6.77
2023-09-26T13:41:54.260Z,6.85
2023-09-26T13:42:57.436Z,6.12
2023-09-26T13:43:59.428Z,6.42
2023-09-26T13:45:01.926Z,6.93
2023-09-26T13:46:04.219Z,6.71
2023-09-26T13:47:07.074Z,6.43
2023-09-26T13:48:09.246Z,6.58
2023-09-26T13:49:11.394Z,6.61
2023-09-26T13:50:18.130Z,6.36
2023-09-26T13:51:20.120Z,7.48
2023-09-26T13:52:22.047Z,6.59
2023-09-26T13:53:24.071Z,6.71